Fulton, Arkansas
Current Conditions -  °F | °C
As of 7:53 PM on Monday 24 Nov 2014 (Local Time) from KTXK Reporting Station
Clear Clear  
Wind Chill: 39°   Ceiling: Unl
Heat Index: 43°   Visibility: 10mi
Dew Point: 32°   Wind: 6mph
Humidity: 65%   Direction: 220°SW
Pressure: 30.08"   Gusts: NA
Location:  33.61°N, 93.81°W
Report Text: KTXK 250153Z 22005KT 10SM CLR 06/00 A3008 RMK AO2 SLP188 T00610000
Loading
Personal Weather Stations






























Interactive Weather Map New forecast layout! Learn more

10-Day Weather Forecast

Advertisements
Track Severe Weather on mobile